Pagina principale
METAR-TAF:

METAR-TAF

Aeroporti :

Amman, Giordania

latitudine: 31-59N, longitudine: 035-59E, altezza: 767 m

Osservazione

Il bollettino è stato emesso 5 minuti fa, alle 19:00 UTC
Vento 3 kt da est
Temperature 11°C
Umidità 28%
Pressione 1018 hPa
Visibilità: 5000 m
foschia

METAR: OJAM 211900Z 08003KT 5000 HZ NSC 11/M07 Q1018 NOSIG

Ora: 21:05 (19:05 UTC)

Previsione

Il bollettino è stato emesso 2 ore e 5 minuti fa, alle 17:00 UTC
Previsione valida dal 21 alle 18 UTC al 22 alle 24 UTC
Vento 8 kt da sud-est
Visibilità: 5000 m
foschia

TAF: OJAM 211700Z 2118/2224 13008KT 5000 HZ NSC

Osservazioni e previsioni meteorologiche di più di 4000 aeroporti (messaggi METAR e TAF).

Le stazioni disponibili sono rappresentate dai dischi gialli e rossi sulla carta.

Puntare il mouse per vedere il nome della stazione.

Clicca sopra per visualizzare le osservazioni e previsioni meteorologiche.

Per cambiare la mappa : fare clic sui pulsanti verdi con una croce nera per ingrandire, il pulsante verde con un trattino per diminuire, o sulla freccia verde per le mappe adiacenti.


METAR-TAF: